sensor_id;sensor_type;location;lat;lon;timestamp;temperature;humidity
71754;DHT22;59593;51.716;7.016;2022-09-28T00:01:14;9.30;99.90
71754;DHT22;59593;51.716;7.016;2022-09-28T00:03:39;9.30;99.90
71754;DHT22;59593;51.716;7.016;2022-09-28T00:06:08;9.20;99.90
71754;DHT22;59593;51.716;7.016;2022-09-28T00:08:35;9.30;99.90
71754;DHT22;59593;51.716;7.016;2022-09-28T00:11:02;9.30;99.90
71754;DHT22;59593;51.716;7.016;2022-09-28T00:13:28;9.30;99.90
71754;DHT22;59593;51.716;7.016;2022-09-28T00:16:06;9.20;99.90
71754;DHT22;59593;51.716;7.016;2022-09-28T00:18:33;9.20;99.90
71754;DHT22;59593;51.716;7.016;2022-09-28T00:21:04;9.20;99.90
71754;DHT22;59593;51.716;7.016;2022-09-28T00:23:30;9.20;99.90
71754;DHT22;59593;51.716;7.016;2022-09-28T00:26:03;9.10;99.90
71754;DHT22;59593;51.716;7.016;2022-09-28T00:28:29;9.10;99.90
71754;DHT22;59593;51.716;7.016;2022-09-28T00:30:56;9.10;99.90
71754;DHT22;59593;51.716;7.016;2022-09-28T00:33:22;9.20;99.90
71754;DHT22;59593;51.716;7.016;2022-09-28T00:35:57;9.20;99.90
71754;DHT22;59593;51.716;7.016;2022-09-28T00:38:29;9.20;99.90
71754;DHT22;59593;51.716;7.016;2022-09-28T00:40:55;9.10;99.90
71754;DHT22;59593;51.716;7.016;2022-09-28T00:43:21;9.00;99.90
71754;DHT22;59593;51.716;7.016;2022-09-28T00:46:17;9.10;99.90
71754;DHT22;59593;51.716;7.016;2022-09-28T00:49:02;9.10;99.90
71754;DHT22;59593;51.716;7.016;2022-09-28T00:51:30;9.00;99.90
71754;DHT22;59593;51.716;7.016;2022-09-28T00:53:57;8.90;99.90
71754;DHT22;59593;51.716;7.016;2022-09-28T00:56:26;9.00;99.90
71754;DHT22;59593;51.716;7.016;2022-09-28T00:58:53;8.90;99.90
71754;DHT22;59593;51.716;7.016;2022-09-28T01:01:19;8.90;99.90
71754;DHT22;59593;51.716;7.016;2022-09-28T01:03:46;8.90;99.90
71754;DHT22;59593;51.716;7.016;2022-09-28T01:06:18;9.00;99.90
71754;DHT22;59593;51.716;7.016;2022-09-28T01:08:46;9.00;99.90
71754;DHT22;59593;51.716;7.016;2022-09-28T01:11:12;9.00;99.90
71754;DHT22;59593;51.716;7.016;2022-09-28T01:13:39;9.10;99.90
71754;DHT22;59593;51.716;7.016;2022-09-28T01:16:18;9.10;99.90
71754;DHT22;59593;51.716;7.016;2022-09-28T01:19:07;9.10;99.90
71754;DHT22;59593;51.716;7.016;2022-09-28T01:24:55;9.00;99.90
71754;DHT22;59593;51.716;7.016;2022-09-28T01:27:33;9.00;99.90
71754;DHT22;59593;51.716;7.016;2022-09-28T01:30:06;9.00;99.90
71754;DHT22;59593;51.716;7.016;2022-09-28T01:32:37;9.00;99.90
71754;DHT22;59593;51.716;7.016;2022-09-28T01:35:17;9.00;99.90
71754;DHT22;59593;51.716;7.016;2022-09-28T01:40:52;8.90;99.90
71754;DHT22;59593;51.716;7.016;2022-09-28T01:43:23;8.80;99.90
71754;DHT22;59593;51.716;7.016;2022-09-28T01:45:59;8.80;99.90
71754;DHT22;59593;51.716;7.016;2022-09-28T01:48:38;8.80;99.90
71754;DHT22;59593;51.716;7.016;2022-09-28T01:51:09;8.80;99.90
71754;DHT22;59593;51.716;7.016;2022-09-28T01:53:42;8.80;99.90
71754;DHT22;59593;51.716;7.016;2022-09-28T01:56:27;8.70;99.90
71754;DHT22;59593;51.716;7.016;2022-09-28T01:59:03;8.80;99.90
71754;DHT22;59593;51.716;7.016;2022-09-28T02:01:45;8.80;99.90
71754;DHT22;59593;51.716;7.016;2022-09-28T02:04:26;8.90;99.90
71754;DHT22;59593;51.716;7.016;2022-09-28T02:07:01;8.80;99.90
71754;DHT22;59593;51.716;7.016;2022-09-28T02:09:34;8.80;99.90
71754;DHT22;59593;51.716;7.016;2022-09-28T02:12:09;8.90;99.90
71754;DHT22;59593;51.716;7.016;2022-09-28T02:14:37;9.00;99.90
71754;DHT22;59593;51.716;7.016;2022-09-28T02:17:04;9.00;99.90
71754;DHT22;59593;51.716;7.016;2022-09-28T02:19:30;8.90;99.90
71754;DHT22;59593;51.716;7.016;2022-09-28T02:22:05;8.90;99.90
71754;DHT22;59593;51.716;7.016;2022-09-28T02:25:10;8.90;99.90
71754;DHT22;59593;51.716;7.016;2022-09-28T02:30:15;8.80;99.90
71754;DHT22;59593;51.716;7.016;2022-09-28T02:32:46;8.80;99.90
71754;DHT22;59593;51.716;7.016;2022-09-28T02:35:15;8.80;99.90
71754;DHT22;59593;51.716;7.016;2022-09-28T02:37:41;8.70;99.90
71754;DHT22;59593;51.716;7.016;2022-09-28T02:40:18;8.70;99.90
71754;DHT22;59593;51.716;7.016;2022-09-28T02:57:11;8.80;99.90
71754;DHT22;59593;51.716;7.016;2022-09-28T03:00:00;8.90;99.90
71754;DHT22;59593;51.716;7.016;2022-09-28T03:05:45;8.80;99.90
71754;DHT22;59593;51.716;7.016;2022-09-28T03:08:28;8.80;99.90
71754;DHT22;59593;51.716;7.016;2022-09-28T03:13:24;8.80;99.90
71754;DHT22;59593;51.716;7.016;2022-09-28T03:15:50;8.80;99.90
71754;DHT22;59593;51.716;7.016;2022-09-28T03:18:16;9.00;99.90
71754;DHT22;59593;51.716;7.016;2022-09-28T03:20:42;9.00;99.90
71754;DHT22;59593;51.716;7.016;2022-09-28T03:23:07;8.90;99.90
71754;DHT22;59593;51.716;7.016;2022-09-28T03:25:33;8.90;99.90
71754;DHT22;59593;51.716;7.016;2022-09-28T03:27:59;8.80;99.90
71754;DHT22;59593;51.716;7.016;2022-09-28T03:30:27;8.80;99.90
71754;DHT22;59593;51.716;7.016;2022-09-28T03:32:57;8.90;99.90
71754;DHT22;59593;51.716;7.016;2022-09-28T03:35:23;9.00;99.90
71754;DHT22;59593;51.716;7.016;2022-09-28T03:37:50;9.00;99.90
71754;DHT22;59593;51.716;7.016;2022-09-28T03:40:22;9.00;99.90
71754;DHT22;59593;51.716;7.016;2022-09-28T03:42:48;8.90;99.90
71754;DHT22;59593;51.716;7.016;2022-09-28T03:45:13;8.90;99.90
71754;DHT22;59593;51.716;7.016;2022-09-28T03:47:44;8.80;99.90
71754;DHT22;59593;51.716;7.016;2022-09-28T03:50:09;8.80;99.90
71754;DHT22;59593;51.716;7.016;2022-09-28T03:52:35;8.80;99.90
71754;DHT22;59593;51.716;7.016;2022-09-28T03:55:01;8.80;99.90
71754;DHT22;59593;51.716;7.016;2022-09-28T03:57:26;8.90;99.90
71754;DHT22;59593;51.716;7.016;2022-09-28T03:59:52;8.90;99.90
71754;DHT22;59593;51.716;7.016;2022-09-28T04:02:17;8.90;99.90
71754;DHT22;59593;51.716;7.016;2022-09-28T04:04:43;8.90;99.90
71754;DHT22;59593;51.716;7.016;2022-09-28T04:07:08;8.90;99.90
71754;DHT22;59593;51.716;7.016;2022-09-28T04:09:34;9.10;99.90
71754;DHT22;59593;51.716;7.016;2022-09-28T04:12:00;9.10;99.90
71754;DHT22;59593;51.716;7.016;2022-09-28T04:14:25;9.10;99.90
71754;DHT22;59593;51.716;7.016;2022-09-28T04:16:52;9.10;99.90
71754;DHT22;59593;51.716;7.016;2022-09-28T04:19:19;9.10;99.90
71754;DHT22;59593;51.716;7.016;2022-09-28T04:21:47;9.00;99.90
71754;DHT22;59593;51.716;7.016;2022-09-28T04:24:12;8.90;99.90
71754;DHT22;59593;51.716;7.016;2022-09-28T04:26:38;9.00;99.90
71754;DHT22;59593;51.716;7.016;2022-09-28T04:29:04;8.90;99.90
71754;DHT22;59593;51.716;7.016;2022-09-28T04:31:46;9.00;99.90
71754;DHT22;59593;51.716;7.016;2022-09-28T04:34:14;9.00;99.90
71754;DHT22;59593;51.716;7.016;2022-09-28T04:36:42;9.00;99.90
71754;DHT22;59593;51.716;7.016;2022-09-28T04:39:08;9.00;99.90
71754;DHT22;59593;51.716;7.016;2022-09-28T04:41:33;9.10;99.90
71754;DHT22;59593;51.716;7.016;2022-09-28T04:44:02;9.00;99.90
71754;DHT22;59593;51.716;7.016;2022-09-28T04:46:29;9.00;99.90
71754;DHT22;59593;51.716;7.016;2022-09-28T04:48:55;9.10;99.90
71754;DHT22;59593;51.716;7.016;2022-09-28T04:51:20;9.10;99.90
71754;DHT22;59593;51.716;7.016;2022-09-28T04:53:46;9.00;99.90
71754;DHT22;59593;51.716;7.016;2022-09-28T04:56:13;9.00;99.90
71754;DHT22;59593;51.716;7.016;2022-09-28T04:58:39;9.00;99.90
71754;DHT22;59593;51.716;7.016;2022-09-28T05:01:09;9.00;99.90
71754;DHT22;59593;51.716;7.016;2022-09-28T05:03:35;8.90;99.90
71754;DHT22;59593;51.716;7.016;2022-09-28T05:06:01;8.90;99.90
71754;DHT22;59593;51.716;7.016;2022-09-28T05:08:27;8.80;99.90
71754;DHT22;59593;51.716;7.016;2022-09-28T05:11:01;8.80;99.90
71754;DHT22;59593;51.716;7.016;2022-09-28T05:13:28;8.70;99.90
71754;DHT22;59593;51.716;7.016;2022-09-28T05:15:54;8.80;99.90
71754;DHT22;59593;51.716;7.016;2022-09-28T05:18:20;8.90;99.90
71754;DHT22;59593;51.716;7.016;2022-09-28T05:20:46;8.90;99.90
71754;DHT22;59593;51.716;7.016;2022-09-28T05:23:12;8.90;99.90
71754;DHT22;59593;51.716;7.016;2022-09-28T05:25:40;8.90;99.90
71754;DHT22;59593;51.716;7.016;2022-09-28T05:28:06;8.80;99.90
71754;DHT22;59593;51.716;7.016;2022-09-28T05:30:32;8.80;99.90
71754;DHT22;59593;51.716;7.016;2022-09-28T05:32:58;8.80;99.90
71754;DHT22;59593;51.716;7.016;2022-09-28T05:35:24;8.80;99.90
71754;DHT22;59593;51.716;7.016;2022-09-28T05:37:49;8.80;99.90
71754;DHT22;59593;51.716;7.016;2022-09-28T05:40:15;8.80;99.90
71754;DHT22;59593;51.716;7.016;2022-09-28T05:42:41;8.80;99.90
71754;DHT22;59593;51.716;7.016;2022-09-28T05:45:08;8.80;99.90
71754;DHT22;59593;51.716;7.016;2022-09-28T05:47:41;8.80;99.90
71754;DHT22;59593;51.716;7.016;2022-09-28T05:50:08;8.80;99.90
71754;DHT22;59593;51.716;7.016;2022-09-28T05:52:37;8.80;99.90
71754;DHT22;59593;51.716;7.016;2022-09-28T05:55:04;8.80;99.90
71754;DHT22;59593;51.716;7.016;2022-09-28T05:57:29;8.90;99.90
71754;DHT22;59593;51.716;7.016;2022-09-28T05:59:55;8.90;99.90
71754;DHT22;59593;51.716;7.016;2022-09-28T06:02:21;8.90;99.90
71754;DHT22;59593;51.716;7.016;2022-09-28T06:04:46;8.90;99.90
71754;DHT22;59593;51.716;7.016;2022-09-28T06:07:14;9.00;99.90
71754;DHT22;59593;51.716;7.016;2022-09-28T06:09:39;9.00;99.90
71754;DHT22;59593;51.716;7.016;2022-09-28T06:12:05;9.00;99.90
71754;DHT22;59593;51.716;7.016;2022-09-28T06:14:30;9.00;99.90
71754;DHT22;59593;51.716;7.016;2022-09-28T06:16:56;9.00;99.90
71754;DHT22;59593;51.716;7.016;2022-09-28T06:19:22;9.10;99.90
71754;DHT22;59593;51.716;7.016;2022-09-28T06:21:47;9.00;99.90
71754;DHT22;59593;51.716;7.016;2022-09-28T06:24:13;9.10;99.90
71754;DHT22;59593;51.716;7.016;2022-09-28T06:26:39;9.10;99.90
71754;DHT22;59593;51.716;7.016;2022-09-28T06:29:04;9.10;99.90
71754;DHT22;59593;51.716;7.016;2022-09-28T06:31:30;9.10;99.90
71754;DHT22;59593;51.716;7.016;2022-09-28T06:33:56;9.10;99.90
71754;DHT22;59593;51.716;7.016;2022-09-28T06:36:22;9.20;99.90
71754;DHT22;59593;51.716;7.016;2022-09-28T06:38:47;9.10;99.90
71754;DHT22;59593;51.716;7.016;2022-09-28T06:41:14;9.10;99.90
71754;DHT22;59593;51.716;7.016;2022-09-28T06:43:39;9.20;99.90
71754;DHT22;59593;51.716;7.016;2022-09-28T06:46:07;9.20;99.90
71754;DHT22;59593;51.716;7.016;2022-09-28T06:48:33;9.20;99.90
71754;DHT22;59593;51.716;7.016;2022-09-28T06:50:59;9.10;99.90
71754;DHT22;59593;51.716;7.016;2022-09-28T06:53:26;9.20;99.90
71754;DHT22;59593;51.716;7.016;2022-09-28T06:55:54;9.30;99.90
71754;DHT22;59593;51.716;7.016;2022-09-28T06:58:23;9.30;99.90
71754;DHT22;59593;51.716;7.016;2022-09-28T07:00:51;9.20;99.90
71754;DHT22;59593;51.716;7.016;2022-09-28T07:03:21;9.20;99.90
71754;DHT22;59593;51.716;7.016;2022-09-28T07:05:52;9.30;99.90
71754;DHT22;59593;51.716;7.016;2022-09-28T07:08:23;9.20;99.90
71754;DHT22;59593;51.716;7.016;2022-09-28T07:10:51;9.10;99.90
71754;DHT22;59593;51.716;7.016;2022-09-28T07:13:22;9.20;99.90
71754;DHT22;59593;51.716;7.016;2022-09-28T07:16:02;9.20;99.90
71754;DHT22;59593;51.716;7.016;2022-09-28T07:18:27;9.20;99.90
71754;DHT22;59593;51.716;7.016;2022-09-28T07:20:57;9.30;99.90
71754;DHT22;59593;51.716;7.016;2022-09-28T07:23:24;9.20;99.90
71754;DHT22;59593;51.716;7.016;2022-09-28T07:25:55;9.30;99.90
71754;DHT22;59593;51.716;7.016;2022-09-28T07:28:22;9.30;99.90
71754;DHT22;59593;51.716;7.016;2022-09-28T07:30:48;9.30;99.90
71754;DHT22;59593;51.716;7.016;2022-09-28T07:33:15;9.40;99.90
71754;DHT22;59593;51.716;7.016;2022-09-28T07:35:52;9.50;99.90
71754;DHT22;59593;51.716;7.016;2022-09-28T07:38:18;9.60;99.90
71754;DHT22;59593;51.716;7.016;2022-09-28T07:40:43;9.50;99.90
71754;DHT22;59593;51.716;7.016;2022-09-28T07:43:29;9.40;99.90
71754;DHT22;59593;51.716;7.016;2022-09-28T07:45:55;9.40;99.90
71754;DHT22;59593;51.716;7.016;2022-09-28T07:48:21;9.40;99.90
71754;DHT22;59593;51.716;7.016;2022-09-28T07:50:48;9.60;99.90
71754;DHT22;59593;51.716;7.016;2022-09-28T07:53:19;9.70;99.90
71754;DHT22;59593;51.716;7.016;2022-09-28T07:55:52;9.80;99.90
71754;DHT22;59593;51.716;7.016;2022-09-28T07:58:18;9.70;99.90
71754;DHT22;59593;51.716;7.016;2022-09-28T08:00:45;9.70;99.90
71754;DHT22;59593;51.716;7.016;2022-09-28T08:03:13;9.70;99.90
71754;DHT22;59593;51.716;7.016;2022-09-28T08:05:38;9.80;99.90
71754;DHT22;59593;51.716;7.016;2022-09-28T08:08:05;9.80;99.90
71754;DHT22;59593;51.716;7.016;2022-09-28T08:10:31;9.80;99.90
71754;DHT22;59593;51.716;7.016;2022-09-28T08:12:58;9.90;99.90
71754;DHT22;59593;51.716;7.016;2022-09-28T08:15:26;9.90;99.90
71754;DHT22;59593;51.716;7.016;2022-09-28T08:17:51;9.80;99.90
71754;DHT22;59593;51.716;7.016;2022-09-28T08:20:17;9.80;99.90
71754;DHT22;59593;51.716;7.016;2022-09-28T08:23:05;9.90;99.90
71754;DHT22;59593;51.716;7.016;2022-09-28T08:25:31;10.00;99.90
71754;DHT22;59593;51.716;7.016;2022-09-28T08:27:57;10.00;99.90
71754;DHT22;59593;51.716;7.016;2022-09-28T08:30:24;10.00;99.90
71754;DHT22;59593;51.716;7.016;2022-09-28T08:32:53;10.20;99.90
71754;DHT22;59593;51.716;7.016;2022-09-28T08:35:18;10.20;99.90
71754;DHT22;59593;51.716;7.016;2022-09-28T08:37:51;10.20;99.90
71754;DHT22;59593;51.716;7.016;2022-09-28T08:40:21;10.20;99.90
71754;DHT22;59593;51.716;7.016;2022-09-28T08:43:01;10.20;99.90
71754;DHT22;59593;51.716;7.016;2022-09-28T08:45:30;10.30;99.90
71754;DHT22;59593;51.716;7.016;2022-09-28T08:48:18;10.40;99.90
71754;DHT22;59593;51.716;7.016;2022-09-28T08:51:09;10.40;99.90
71754;DHT22;59593;51.716;7.016;2022-09-28T08:56:46;10.50;99.90
71754;DHT22;59593;51.716;7.016;2022-09-28T08:59:22;10.70;99.90
71754;DHT22;59593;51.716;7.016;2022-09-28T09:01:58;10.70;99.90
71754;DHT22;59593;51.716;7.016;2022-09-28T09:04:25;10.60;99.90
71754;DHT22;59593;51.716;7.016;2022-09-28T09:07:10;10.70;99.90
71754;DHT22;59593;51.716;7.016;2022-09-28T09:10:15;10.70;99.90
71754;DHT22;59593;51.716;7.016;2022-09-28T09:24:51;10.90;99.90
71754;DHT22;59593;51.716;7.016;2022-09-28T09:38:26;10.70;99.90
71754;DHT22;59593;51.716;7.016;2022-09-28T09:41:01;10.80;99.90
71754;DHT22;59593;51.716;7.016;2022-09-28T09:44:04;10.80;99.90
71754;DHT22;59593;51.716;7.016;2022-09-28T09:49:23;11.50;99.90
71754;DHT22;59593;51.716;7.016;2022-09-28T09:54:28;11.60;99.90
71754;DHT22;59593;51.716;7.016;2022-09-28T09:57:06;11.50;99.90
71754;DHT22;59593;51.716;7.016;2022-09-28T09:59:37;11.60;99.90
71754;DHT22;59593;51.716;7.016;2022-09-28T10:02:28;11.70;99.90
71754;DHT22;59593;51.716;7.016;2022-09-28T10:10:20;11.70;99.90
71754;DHT22;59593;51.716;7.016;2022-09-28T10:12:49;11.60;99.90
71754;DHT22;59593;51.716;7.016;2022-09-28T10:15:22;11.60;99.90
71754;DHT22;59593;51.716;7.016;2022-09-28T10:17:48;11.60;99.90
71754;DHT22;59593;51.716;7.016;2022-09-28T10:20:15;11.60;99.90
71754;DHT22;59593;51.716;7.016;2022-09-28T10:22:41;11.70;99.90
71754;DHT22;59593;51.716;7.016;2022-09-28T10:25:08;11.80;99.90
71754;DHT22;59593;51.716;7.016;2022-09-28T10:27:37;11.70;99.90
71754;DHT22;59593;51.716;7.016;2022-09-28T10:30:21;11.70;99.90
71754;DHT22;59593;51.716;7.016;2022-09-28T10:32:49;12.10;99.90
71754;DHT22;59593;51.716;7.016;2022-09-28T10:37:58;13.40;99.90
71754;DHT22;59593;51.716;7.016;2022-09-28T10:42:59;13.00;99.90
71754;DHT22;59593;51.716;7.016;2022-09-28T10:45:25;12.40;99.90
71754;DHT22;59593;51.716;7.016;2022-09-28T10:47:52;11.80;99.90
71754;DHT22;59593;51.716;7.016;2022-09-28T10:50:21;12.20;99.90
71754;DHT22;59593;51.716;7.016;2022-09-28T10:52:48;12.40;99.90
71754;DHT22;59593;51.716;7.016;2022-09-28T10:57:45;13.20;99.90
71754;DHT22;59593;51.716;7.016;2022-09-28T11:00:39;13.30;99.90
71754;DHT22;59593;51.716;7.016;2022-09-28T11:03:20;13.40;99.90
71754;DHT22;59593;51.716;7.016;2022-09-28T11:06:01;13.50;99.90
71754;DHT22;59593;51.716;7.016;2022-09-28T11:08:36;13.30;99.90
71754;DHT22;59593;51.716;7.016;2022-09-28T11:11:11;12.90;99.90
71754;DHT22;59593;51.716;7.016;2022-09-28T11:13:43;13.00;99.90
71754;DHT22;59593;51.716;7.016;2022-09-28T11:18:49;12.80;99.90
71754;DHT22;59593;51.716;7.016;2022-09-28T11:21:19;12.70;99.90
71754;DHT22;59593;51.716;7.016;2022-09-28T11:26:22;12.70;99.90
71754;DHT22;59593;51.716;7.016;2022-09-28T11:28:52;12.70;99.90
71754;DHT22;59593;51.716;7.016;2022-09-28T11:31:27;12.70;99.90
71754;DHT22;59593;51.716;7.016;2022-09-28T11:34:15;12.60;99.90
71754;DHT22;59593;51.716;7.016;2022-09-28T11:39:26;12.70;99.90
71754;DHT22;59593;51.716;7.016;2022-09-28T11:44:47;12.60;99.90
71754;DHT22;59593;51.716;7.016;2022-09-28T11:47:31;12.50;99.90
71754;DHT22;59593;51.716;7.016;2022-09-28T11:52:42;12.70;99.90
71754;DHT22;59593;51.716;7.016;2022-09-28T11:55:20;12.80;99.90
71754;DHT22;59593;51.716;7.016;2022-09-28T11:57:52;12.90;99.90
71754;DHT22;59593;51.716;7.016;2022-09-28T12:00:20;12.90;99.90
71754;DHT22;59593;51.716;7.016;2022-09-28T12:03:18;13.20;99.90
71754;DHT22;59593;51.716;7.016;2022-09-28T12:05:54;13.60;99.90
71754;DHT22;59593;51.716;7.016;2022-09-28T12:08:37;14.10;99.90
71754;DHT22;59593;51.716;7.016;2022-09-28T12:11:09;14.00;99.90
71754;DHT22;59593;51.716;7.016;2022-09-28T12:13:40;13.90;99.90
71754;DHT22;59593;51.716;7.016;2022-09-28T12:19:16;13.20;99.90
71754;DHT22;59593;51.716;7.016;2022-09-28T12:27:19;12.30;99.90
71754;DHT22;59593;51.716;7.016;2022-09-28T12:29:41;12.20;99.90
71754;DHT22;59593;51.716;7.016;2022-09-28T12:32:15;12.60;99.90
71754;DHT22;59593;51.716;7.016;2022-09-28T12:34:44;14.30;99.90
71754;DHT22;59593;51.716;7.016;2022-09-28T12:37:45;15.40;99.90
71754;DHT22;59593;51.716;7.016;2022-09-28T12:45:39;15.70;99.90
71754;DHT22;59593;51.716;7.016;2022-09-28T12:51:34;14.80;99.90
71754;DHT22;59593;51.716;7.016;2022-09-28T13:00:02;14.20;99.90
71754;DHT22;59593;51.716;7.016;2022-09-28T13:20:24;14.80;99.90
71754;DHT22;59593;51.716;7.016;2022-09-28T13:28:17;13.80;99.90
71754;DHT22;59593;51.716;7.016;2022-09-28T13:30:45;13.90;99.90
71754;DHT22;59593;51.716;7.016;2022-09-28T13:33:20;14.90;99.90
71754;DHT22;59593;51.716;7.016;2022-09-28T13:35:47;15.30;99.90
71754;DHT22;59593;51.716;7.016;2022-09-28T13:46:31;19.40;99.90
71754;DHT22;59593;51.716;7.016;2022-09-28T13:58:21;15.70;99.90
71754;DHT22;59593;51.716;7.016;2022-09-28T14:06:29;15.60;99.90
71754;DHT22;59593;51.716;7.016;2022-09-28T14:09:38;17.30;99.90
71754;DHT22;59593;51.716;7.016;2022-09-28T14:14:52;17.20;99.90
71754;DHT22;59593;51.716;7.016;2022-09-28T14:20:12;16.50;99.90
71754;DHT22;59593;51.716;7.016;2022-09-28T14:25:27;15.20;99.90
71754;DHT22;59593;51.716;7.016;2022-09-28T14:30:56;15.10;99.90
71754;DHT22;59593;51.716;7.016;2022-09-28T14:33:31;15.40;99.90
71754;DHT22;59593;51.716;7.016;2022-09-28T14:36:01;15.70;99.90
71754;DHT22;59593;51.716;7.016;2022-09-28T14:38:35;16.40;99.90
71754;DHT22;59593;51.716;7.016;2022-09-28T14:41:33;16.20;99.90
71754;DHT22;59593;51.716;7.016;2022-09-28T14:44:03;16.80;99.90
71754;DHT22;59593;51.716;7.016;2022-09-28T14:46:32;16.80;99.90
71754;DHT22;59593;51.716;7.016;2022-09-28T14:59:31;14.60;99.90
71754;DHT22;59593;51.716;7.016;2022-09-28T15:02:10;14.00;99.90
71754;DHT22;59593;51.716;7.016;2022-09-28T15:04:55;13.70;99.90
71754;DHT22;59593;51.716;7.016;2022-09-28T15:07:46;13.60;99.90
71754;DHT22;59593;51.716;7.016;2022-09-28T15:10:34;13.60;99.90
71754;DHT22;59593;51.716;7.016;2022-09-28T15:13:03;13.50;99.90
71754;DHT22;59593;51.716;7.016;2022-09-28T15:15:37;13.50;99.90
71754;DHT22;59593;51.716;7.016;2022-09-28T15:18:19;13.60;99.90
71754;DHT22;59593;51.716;7.016;2022-09-28T15:20:53;14.10;99.90
71754;DHT22;59593;51.716;7.016;2022-09-28T15:23:40;14.80;99.90
71754;DHT22;59593;51.716;7.016;2022-09-28T15:26:23;15.20;99.90
71754;DHT22;59593;51.716;7.016;2022-09-28T15:28:52;15.40;99.90
71754;DHT22;59593;51.716;7.016;2022-09-28T15:31:23;15.20;99.90
71754;DHT22;59593;51.716;7.016;2022-09-28T15:33:51;14.90;99.90
71754;DHT22;59593;51.716;7.016;2022-09-28T15:36:42;14.70;99.90
71754;DHT22;59593;51.716;7.016;2022-09-28T15:39:12;14.40;99.90
71754;DHT22;59593;51.716;7.016;2022-09-28T15:41:43;14.10;99.90
71754;DHT22;59593;51.716;7.016;2022-09-28T15:47:12;13.80;99.90
71754;DHT22;59593;51.716;7.016;2022-09-28T15:49:55;13.70;99.90
71754;DHT22;59593;51.716;7.016;2022-09-28T15:52:52;13.60;99.90
71754;DHT22;59593;51.716;7.016;2022-09-28T15:57:44;13.30;99.90
71754;DHT22;59593;51.716;7.016;2022-09-28T16:00:27;13.20;99.90
71754;DHT22;59593;51.716;7.016;2022-09-28T16:11:02;12.90;99.90
71754;DHT22;59593;51.716;7.016;2022-09-28T16:13:30;12.90;99.90
71754;DHT22;59593;51.716;7.016;2022-09-28T16:15:57;12.70;99.90
71754;DHT22;59593;51.716;7.016;2022-09-28T16:18:28;12.80;99.90
71754;DHT22;59593;51.716;7.016;2022-09-28T16:20:57;12.70;99.90
71754;DHT22;59593;51.716;7.016;2022-09-28T16:23:32;12.60;99.90
71754;DHT22;59593;51.716;7.016;2022-09-28T16:31:00;12.60;99.90
71754;DHT22;59593;51.716;7.016;2022-09-28T16:33:29;12.60;99.90
71754;DHT22;59593;51.716;7.016;2022-09-28T16:36:01;12.50;99.90
71754;DHT22;59593;51.716;7.016;2022-09-28T16:38:27;12.70;99.90
71754;DHT22;59593;51.716;7.016;2022-09-28T16:40:53;12.60;99.90
71754;DHT22;59593;51.716;7.016;2022-09-28T16:43:25;12.50;99.90
71754;DHT22;59593;51.716;7.016;2022-09-28T16:45:58;12.50;99.90
71754;DHT22;59593;51.716;7.016;2022-09-28T16:48:27;12.50;99.90
71754;DHT22;59593;51.716;7.016;2022-09-28T16:50:53;12.50;99.90
71754;DHT22;59593;51.716;7.016;2022-09-28T16:53:19;12.50;99.90
71754;DHT22;59593;51.716;7.016;2022-09-28T16:56:03;12.40;99.90
71754;DHT22;59593;51.716;7.016;2022-09-28T16:58:30;12.40;99.90
71754;DHT22;59593;51.716;7.016;2022-09-28T17:00:59;12.40;99.90
71754;DHT22;59593;51.716;7.016;2022-09-28T17:03:26;12.30;99.90
71754;DHT22;59593;51.716;7.016;2022-09-28T17:05:52;12.30;99.90
71754;DHT22;59593;51.716;7.016;2022-09-28T17:08:20;12.20;99.90
71754;DHT22;59593;51.716;7.016;2022-09-28T17:10:59;12.20;99.90
71754;DHT22;59593;51.716;7.016;2022-09-28T17:13:30;12.00;99.90
71754;DHT22;59593;51.716;7.016;2022-09-28T17:16:02;12.00;99.90
71754;DHT22;59593;51.716;7.016;2022-09-28T17:18:29;11.90;99.90
71754;DHT22;59593;51.716;7.016;2022-09-28T17:20:57;11.90;99.90
71754;DHT22;59593;51.716;7.016;2022-09-28T17:23:24;11.80;99.90
71754;DHT22;59593;51.716;7.016;2022-09-28T17:25:50;11.70;99.90
71754;DHT22;59593;51.716;7.016;2022-09-28T17:28:35;11.60;99.90
71754;DHT22;59593;51.716;7.016;2022-09-28T17:31:02;11.40;99.90
71754;DHT22;59593;51.716;7.016;2022-09-28T17:33:28;11.30;99.90
71754;DHT22;59593;51.716;7.016;2022-09-28T17:36:01;11.30;99.90
71754;DHT22;59593;51.716;7.016;2022-09-28T17:38:29;11.50;99.90
71754;DHT22;59593;51.716;7.016;2022-09-28T17:40:54;11.50;99.90
71754;DHT22;59593;51.716;7.016;2022-09-28T17:43:20;11.40;99.90
71754;DHT22;59593;51.716;7.016;2022-09-28T17:45:47;11.40;99.90
71754;DHT22;59593;51.716;7.016;2022-09-28T17:48:15;11.40;99.90
71754;DHT22;59593;51.716;7.016;2022-09-28T17:50:42;11.40;99.90
71754;DHT22;59593;51.716;7.016;2022-09-28T17:53:08;11.40;99.90
71754;DHT22;59593;51.716;7.016;2022-09-28T17:55:35;11.30;99.90
71754;DHT22;59593;51.716;7.016;2022-09-28T17:58:13;11.10;99.90
71754;DHT22;59593;51.716;7.016;2022-09-28T18:00:39;11.00;99.90
71754;DHT22;59593;51.716;7.016;2022-09-28T18:03:08;11.30;99.90
71754;DHT22;59593;51.716;7.016;2022-09-28T18:05:36;11.40;99.90
71754;DHT22;59593;51.716;7.016;2022-09-28T18:08:02;11.30;99.90
71754;DHT22;59593;51.716;7.016;2022-09-28T18:10:29;11.20;99.90
71754;DHT22;59593;51.716;7.016;2022-09-28T18:12:55;11.10;99.90
71754;DHT22;59593;51.716;7.016;2022-09-28T18:15:21;11.20;99.90
71754;DHT22;59593;51.716;7.016;2022-09-28T18:17:49;11.10;99.90
71754;DHT22;59593;51.716;7.016;2022-09-28T18:20:15;11.10;99.90
71754;DHT22;59593;51.716;7.016;2022-09-28T18:22:40;11.10;99.90
71754;DHT22;59593;51.716;7.016;2022-09-28T18:25:06;11.00;99.90
71754;DHT22;59593;51.716;7.016;2022-09-28T18:27:32;11.00;99.90
71754;DHT22;59593;51.716;7.016;2022-09-28T18:30:01;11.00;99.90
71754;DHT22;59593;51.716;7.016;2022-09-28T18:32:27;10.90;99.90
71754;DHT22;59593;51.716;7.016;2022-09-28T18:34:53;10.80;99.90
71754;DHT22;59593;51.716;7.016;2022-09-28T18:37:18;10.80;99.90
71754;DHT22;59593;51.716;7.016;2022-09-28T18:39:44;10.70;99.90
71754;DHT22;59593;51.716;7.016;2022-09-28T18:42:11;10.80;99.90
71754;DHT22;59593;51.716;7.016;2022-09-28T18:44:36;10.80;99.90
71754;DHT22;59593;51.716;7.016;2022-09-28T18:47:02;10.70;99.90
71754;DHT22;59593;51.716;7.016;2022-09-28T18:49:30;10.80;99.90
71754;DHT22;59593;51.716;7.016;2022-09-28T18:51:56;10.70;99.90
71754;DHT22;59593;51.716;7.016;2022-09-28T18:54:22;10.70;99.90
71754;DHT22;59593;51.716;7.016;2022-09-28T18:56:48;10.60;99.90
71754;DHT22;59593;51.716;7.016;2022-09-28T18:59:17;10.60;99.90
71754;DHT22;59593;51.716;7.016;2022-09-28T19:01:43;10.50;99.90
71754;DHT22;59593;51.716;7.016;2022-09-28T19:04:09;10.50;99.90
71754;DHT22;59593;51.716;7.016;2022-09-28T19:06:40;10.40;99.90
71754;DHT22;59593;51.716;7.016;2022-09-28T19:09:07;10.30;99.90
71754;DHT22;59593;51.716;7.016;2022-09-28T19:11:33;10.30;99.90
71754;DHT22;59593;51.716;7.016;2022-09-28T19:13:59;10.30;99.90
71754;DHT22;59593;51.716;7.016;2022-09-28T19:16:27;10.20;99.90